createdAt,value
2018-09-27T00:00:33.250Z,87.17
2018-09-27T00:01:43.372Z,86.84
2018-09-27T00:02:53.260Z,86.94
2018-09-27T00:04:05.405Z,86.98
2018-09-27T00:05:15.330Z,86.84
2018-09-27T00:06:25.455Z,86.84
2018-09-27T00:07:35.313Z,87.51
2018-09-27T00:08:45.146Z,87.6
2018-09-27T00:09:55.293Z,87.23
2018-09-27T00:11:05.125Z,87.32
2018-09-27T00:12:15.283Z,87.23
2018-09-27T00:13:25.440Z,87.13
2018-09-27T00:14:35.308Z,87.7
2018-09-27T00:15:45.462Z,87.51
2018-09-27T00:16:55.688Z,87.23
2018-09-27T00:18:05.814Z,87.13
2018-09-27T00:19:15.943Z,87.13
2018-09-27T00:20:26.217Z,87.13
2018-09-27T00:21:36.353Z,87.13
2018-09-27T00:22:46.539Z,87.7
2018-09-27T00:23:56.412Z,87.13
2018-09-27T00:25:06.292Z,86.94
2018-09-27T00:26:16.416Z,87.51
2018-09-27T00:27:26.299Z,87.23
2018-09-27T00:28:36.165Z,87.03
2018-09-27T00:29:46.299Z,87.13
2018-09-27T00:30:56.437Z,87.03
2018-09-27T00:32:06.332Z,87.51
2018-09-27T00:33:16.175Z,87.51
2018-09-27T00:34:26.358Z,86.99
2018-09-27T00:35:36.497Z,87.27
2018-09-27T00:36:46.368Z,87.18
2018-09-27T00:37:56.497Z,87.6
2018-09-27T00:39:08.480Z,87.18
2018-09-27T00:40:17.791Z,87.65
2018-09-27T00:41:27.665Z,86.9
2018-09-27T00:42:37.557Z,87.18
2018-09-27T00:43:47.679Z,86.7
2018-09-27T00:44:57.806Z,87.46
2018-09-27T00:46:09.166Z,87.56
2018-09-27T00:47:19.295Z,87.37
2018-09-27T00:48:29.432Z,86.9
2018-09-27T00:49:39.566Z,86.9
2018-09-27T00:50:49.720Z,86.9
2018-09-27T00:51:59.873Z,86.99
2018-09-27T00:53:10.012Z,86.9
2018-09-27T00:54:20.140Z,86.7
2018-09-27T00:55:30.267Z,86.61
2018-09-27T00:56:39.859Z,86.61
2018-09-27T00:57:50.036Z,86.61
2018-09-27T00:59:00.169Z,86.61
2018-09-27T01:00:10.036Z,86.7
2018-09-27T01:01:20.185Z,86.7
2018-09-27T01:02:30.066Z,86.9
2018-09-27T01:03:39.959Z,86.9
2018-09-27T01:04:50.104Z,86.7
2018-09-27T01:06:00.333Z,86.7
2018-09-27T01:07:10.468Z,86.99
2018-09-27T01:08:20.336Z,87.08
2018-09-27T01:09:30.538Z,87.27
2018-09-27T01:10:40.685Z,86.61
2018-09-27T01:11:50.558Z,86.9
2018-09-27T01:13:00.683Z,86.61
2018-09-27T01:14:10.302Z,87.27
2018-09-27T01:15:20.506Z,87.37
2018-09-27T01:16:30.642Z,86.9
2018-09-27T01:17:40.768Z,86.9
2018-09-27T01:18:50.641Z,86.9
2018-09-27T01:20:00.356Z,86.8
2018-09-27T01:21:10.251Z,86.61
2018-09-27T01:22:20.119Z,86.51
2018-09-27T01:23:29.996Z,86.51
2018-09-27T01:24:40.152Z,87.18
2018-09-27T01:25:50.284Z,86.9
2018-09-27T01:27:00.437Z,86.51
2018-09-27T01:28:10.576Z,86.9
2018-09-27T01:29:20.796Z,87.27
2018-09-27T01:30:30.658Z,86.9
2018-09-27T01:31:40.791Z,86.61
2018-09-27T01:32:50.944Z,87.04
2018-09-27T01:34:01.417Z,87.18
2018-09-27T01:35:11.572Z,87.27
2018-09-27T01:36:21.698Z,87.23
2018-09-27T01:37:31.582Z,86.38
2018-09-27T01:38:41.731Z,87.13
2018-09-27T01:39:51.537Z,86.85
2018-09-27T01:41:01.672Z,86.76
2018-09-27T01:42:11.293Z,86.85
2018-09-27T01:43:21.438Z,86.94
2018-09-27T01:44:31.700Z,86.76
2018-09-27T01:45:41.837Z,86.66
2018-09-27T01:46:51.982Z,86.57
2018-09-27T01:48:02.046Z,86.66
2018-09-27T01:49:12.192Z,86.8
2018-09-27T01:50:22.341Z,86.51
2018-09-27T01:51:32.507Z,86.47
2018-09-27T01:52:42.652Z,86.38
2018-09-27T01:53:52.790Z,86.9
2018-09-27T01:55:02.924Z,86.47
2018-09-27T01:56:13.106Z,86.47
2018-09-27T01:57:23.228Z,86.76
2018-09-27T01:58:33.422Z,86.76
2018-09-27T01:59:43.676Z,86.85
2018-09-27T02:00:53.808Z,87.23
2018-09-27T02:02:03.789Z,86.85
2018-09-27T02:03:13.670Z,86.47
2018-09-27T02:04:23.827Z,86.47
2018-09-27T02:05:33.969Z,86.38
2018-09-27T02:06:44.115Z,86.66
2018-09-27T02:07:54.271Z,86.76
2018-09-27T02:09:05.610Z,86.66
2018-09-27T02:10:15.498Z,86.76
2018-09-27T02:11:25.631Z,86.76
2018-09-27T02:12:35.828Z,86.85
2018-09-27T02:13:46.021Z,86.47
2018-09-27T02:14:56.168Z,86.38
2018-09-27T02:16:06.715Z,86.76
2018-09-27T02:17:16.840Z,86.66
2018-09-27T02:18:26.439Z,86.76
2018-09-27T02:19:36.621Z,86.85
2018-09-27T02:20:46.477Z,86.47
2018-09-27T02:21:56.338Z,86.76
2018-09-27T02:23:06.216Z,86.85
2018-09-27T02:24:16.361Z,87.04
2018-09-27T02:25:26.262Z,86.85
2018-09-27T02:26:36.391Z,87.04
2018-09-27T02:27:46.522Z,86.38
2018-09-27T02:28:56.399Z,86.57
2018-09-27T02:30:07.095Z,86.85
2018-09-27T02:31:17.244Z,86.57
2018-09-27T02:32:27.409Z,86.57
2018-09-27T02:33:37.554Z,86.57
2018-09-27T02:34:47.719Z,86.38
2018-09-27T02:35:57.853Z,86.57
2018-09-27T02:37:08.117Z,86.94
2018-09-27T02:38:18.273Z,86.47
2018-09-27T02:39:28.431Z,86.47
2018-09-27T02:40:38.566Z,86.94
2018-09-27T02:41:48.501Z,86.38
2018-09-27T02:42:58.433Z,86.76
2018-09-27T02:44:08.270Z,86.66
2018-09-27T02:45:18.416Z,87.13
2018-09-27T02:46:28.298Z,86.94
2018-09-27T02:47:38.435Z,86.76
2018-09-27T02:48:48.690Z,86.85
2018-09-27T02:49:58.816Z,86.76
2018-09-27T02:51:08.707Z,86.66
2018-09-27T02:52:18.567Z,86.66
2018-09-27T02:53:28.729Z,86.85
2018-09-27T02:54:38.712Z,86.76
2018-09-27T02:55:48.872Z,86.28
2018-09-27T02:56:58.496Z,86.38
2018-09-27T02:58:08.445Z,86.38
2018-09-27T02:59:18.586Z,86.47
2018-09-27T03:00:28.791Z,86.47
2018-09-27T03:01:38.927Z,86.76
2018-09-27T03:37:37.565Z,82.88
2018-09-27T03:38:47.388Z,83.64
2018-09-27T03:39:57.576Z,84.49
2018-09-27T03:41:08.003Z,84.59
2018-09-27T03:42:17.611Z,85.35
2018-09-27T03:43:27.703Z,86.01
2018-09-27T03:44:37.792Z,86.77
2018-09-27T03:45:47.849Z,86.2
2018-09-27T03:46:57.920Z,86.3
2018-09-27T03:48:10.401Z,86.53
2018-09-27T03:49:20.458Z,86.34
2018-09-27T03:50:30.613Z,86.63
2018-09-27T03:51:40.715Z,86.82
2018-09-27T03:52:50.776Z,86.24
2018-09-27T03:54:00.644Z,86.95
2018-09-27T03:55:10.728Z,86.86
2018-09-27T03:56:20.793Z,86.47
2018-09-27T03:57:30.843Z,86.57
2018-09-27T03:58:40.915Z,86.38
2018-09-27T03:59:51.003Z,86.67
2018-09-27T04:01:01.828Z,86.47
2018-09-27T04:02:11.890Z,86.38
2018-09-27T04:03:22.257Z,86.67
2018-09-27T04:04:32.549Z,86.61
2018-09-27T04:05:42.359Z,86.57
2018-09-27T04:06:51.926Z,86.61
2018-09-27T04:08:01.988Z,86.43
2018-09-27T04:09:12.056Z,86.99
2018-09-27T04:10:21.874Z,86.9
2018-09-27T04:11:31.695Z,86.9
2018-09-27T04:12:42.012Z,86.71
2018-09-27T04:13:52.292Z,86.71
2018-09-27T04:15:02.380Z,86.71
2018-09-27T04:16:12.438Z,86.71
2018-09-27T04:17:22.507Z,86.8
2018-09-27T04:18:32.059Z,86.71
2018-09-27T04:19:41.876Z,86.71
2018-09-27T04:20:51.939Z,86.9
2018-09-27T04:22:02.039Z,86.8
2018-09-27T04:23:12.138Z,86.61
2018-09-27T04:24:22.235Z,86.99
2018-09-27T04:25:32.372Z,86.9
2018-09-27T04:26:42.177Z,86.94
2018-09-27T04:27:52.337Z,86.76
2018-09-27T04:29:02.843Z,86.99
2018-09-27T04:30:12.647Z,86.99
2018-09-27T04:31:22.705Z,87.04
2018-09-27T04:32:32.805Z,86.9
2018-09-27T04:33:43.207Z,86.94
2018-09-27T04:34:53.570Z,86.94
2018-09-27T04:36:03.668Z,86.76
2018-09-27T04:37:13.472Z,86.66
2018-09-27T04:38:23.288Z,86.76
2018-09-27T04:39:33.347Z,86.94
2018-09-27T04:40:43.517Z,86.94
2018-09-27T04:41:53.633Z,86.94
2018-09-27T04:43:03.885Z,86.76
2018-09-27T04:44:13.949Z,86.94
2018-09-27T04:45:24.014Z,86.94
2018-09-27T04:46:33.932Z,86.94
2018-09-27T04:47:44.277Z,86.66
2018-09-27T04:48:54.082Z,86.66
2018-09-27T04:50:04.216Z,86.66
2018-09-27T04:51:14.287Z,86.76
2018-09-27T04:52:24.348Z,86.18
2018-09-27T04:53:34.148Z,86.76
2018-09-27T04:54:44.207Z,86.66
2018-09-27T04:55:54.363Z,86.94
2018-09-27T04:57:04.447Z,86.66
2018-09-27T04:58:14.522Z,86.76
2018-09-27T04:59:24.585Z,86.66
2018-09-27T05:00:34.791Z,86.28
2018-09-27T05:01:44.633Z,86.47
2018-09-27T05:02:54.442Z,86.47
2018-09-27T05:04:04.250Z,86.76
2018-09-27T05:05:14.323Z,86.38
2018-09-27T05:06:24.739Z,86.47
2018-09-27T05:07:35.004Z,86.76
2018-09-27T05:08:45.072Z,86.38
2018-09-27T05:09:55.134Z,86.66
2018-09-27T05:11:06.011Z,86.18
2018-09-27T05:12:16.079Z,86.38
2018-09-27T05:13:26.199Z,86.57
2018-09-27T05:14:35.992Z,86.42
2018-09-27T05:15:46.268Z,86.38
2018-09-27T05:16:56.398Z,86.42
2018-09-27T05:18:06.466Z,86.61
2018-09-27T05:19:16.522Z,86.22
2018-09-27T05:20:26.673Z,86.51
2018-09-27T05:21:37.221Z,86.42
2018-09-27T05:22:47.364Z,86.13
2018-09-27T05:23:57.407Z,86.42
2018-09-27T05:25:06.942Z,86.42
2018-09-27T05:26:16.493Z,86.42
2018-09-27T05:27:26.578Z,86.04
2018-09-27T05:28:36.799Z,86.04
2018-09-27T05:29:46.873Z,85.94
2018-09-27T05:30:56.731Z,87.08
2018-09-27T05:32:06.800Z,86.99
2018-09-27T05:33:16.862Z,86.04
2018-09-27T05:34:26.705Z,85.94
2018-09-27T05:35:36.772Z,86.18
2018-09-27T05:36:46.840Z,86.27
2018-09-27T05:37:56.939Z,86.18
2018-09-27T05:39:07.501Z,86.08
2018-09-27T05:40:17.307Z,86.36
2018-09-27T05:41:26.847Z,85.99
2018-09-27T05:42:36.644Z,86.18
2018-09-27T05:43:46.696Z,86.27
2018-09-27T05:44:56.772Z,86.08
2018-09-27T05:46:06.584Z,86.08
2018-09-27T05:47:16.668Z,85.93
2018-09-27T05:48:26.800Z,86.12
2018-09-27T05:49:36.858Z,86.12
2018-09-27T05:50:46.952Z,86.12
2018-09-27T05:51:57.031Z,86.22
2018-09-27T05:53:06.809Z,85.84
2018-09-27T05:54:16.934Z,86.22
2018-09-27T05:55:26.978Z,86.22
2018-09-27T05:56:37.028Z,86.26
2018-09-27T05:57:47.082Z,85.78
2018-09-27T05:58:57.190Z,85.78
2018-09-27T06:00:08.241Z,85.78
2018-09-27T06:01:18.341Z,86.16
2018-09-27T06:02:28.425Z,86.07
2018-09-27T06:03:38.337Z,86.07
2018-09-27T06:04:48.568Z,85.97
2018-09-27T06:05:58.642Z,86.16
2018-09-27T06:07:08.566Z,85.78
2018-09-27T06:08:18.658Z,86.26
2018-09-27T06:09:28.512Z,86.45
2018-09-27T06:10:38.808Z,85.97
2018-09-27T06:11:48.936Z,86.02
2018-09-27T06:12:58.749Z,86.11
2018-09-27T06:14:08.826Z,86.21
2018-09-27T06:15:18.908Z,86.02
2018-09-27T06:16:29.134Z,86.21
2018-09-27T06:17:39.219Z,86.21
2018-09-27T06:18:49.340Z,86.11
2018-09-27T06:19:59.542Z,86.11
2018-09-27T06:21:09.362Z,86.3
2018-09-27T06:22:19.432Z,86.49
2018-09-27T06:23:29.491Z,86.49
2018-09-27T06:24:39.559Z,86.49
2018-09-27T06:25:49.653Z,86.3
2018-09-27T06:26:59.805Z,86.49
2018-09-27T06:28:09.871Z,86.21
2018-09-27T06:29:19.978Z,86.25
2018-09-27T06:30:30.043Z,86.25
2018-09-27T06:31:39.863Z,86.16
2018-09-27T06:32:49.918Z,86.35
2018-09-27T06:34:00.570Z,86.25
2018-09-27T06:35:10.558Z,86.16
2018-09-27T06:36:20.849Z,86.25
2018-09-27T06:37:30.914Z,86.16
2018-09-27T06:38:41.163Z,86.16
2018-09-27T06:39:50.983Z,86.25
2018-09-27T06:41:02.390Z,86.3
2018-09-27T06:42:12.184Z,86.3
2018-09-27T06:43:22.249Z,86.3
2018-09-27T06:44:32.468Z,86.49
2018-09-27T06:45:42.749Z,86.2
2018-09-27T06:46:52.876Z,86.2
2018-09-27T06:48:05.498Z,86.2
2018-09-27T06:49:15.393Z,86.58
2018-09-27T06:50:25.473Z,86.68
2018-09-27T06:51:35.389Z,86.3
2018-09-27T06:52:45.554Z,86.77
2018-09-27T06:53:55.354Z,86.2
2018-09-27T06:55:05.705Z,86.58
2018-09-27T06:56:16.773Z,86.3
2018-09-27T06:57:26.173Z,86.34
2018-09-27T06:58:36.242Z,86.39
2018-09-27T06:59:46.301Z,86.43
2018-09-27T07:00:56.299Z,86.63
2018-09-27T07:02:06.461Z,86.63
2018-09-27T07:03:16.592Z,86.05
2018-09-27T07:04:26.503Z,86.53
2018-09-27T07:05:36.290Z,86.43
2018-09-27T07:06:46.097Z,86.63
2018-09-27T07:07:55.638Z,86.43
2018-09-27T07:09:05.442Z,86.43
2018-09-27T07:10:14.986Z,86
2018-09-27T07:11:24.806Z,86.29
2018-09-27T07:12:34.491Z,86.47
2018-09-27T07:13:44.448Z,86.19
2018-09-27T07:14:54.518Z,86.19
2018-09-27T07:16:04.641Z,86.19
2018-09-27T07:17:14.470Z,86.19
2018-09-27T07:18:24.539Z,86.29
2018-09-27T07:19:34.348Z,85.9
2018-09-27T07:20:44.636Z,86.04
2018-09-27T07:21:55.062Z,86.52
2018-09-27T07:23:05.317Z,86.33
2018-09-27T07:24:15.412Z,86.23
2018-09-27T07:25:25.226Z,86.23
2018-09-27T07:26:35.548Z,86.61
2018-09-27T07:27:45.772Z,86.04
2018-09-27T07:28:55.592Z,86.14
2018-09-27T07:30:05.460Z,86.37
2018-09-27T07:31:15.477Z,86.08
2018-09-27T07:32:25.711Z,86.18
2018-09-27T07:33:36.008Z,86.37
2018-09-27T07:34:46.048Z,86.28
2018-09-27T07:35:55.848Z,86.47
2018-09-27T07:37:05.666Z,86.28
2018-09-27T07:38:15.494Z,86.32
2018-09-27T07:39:25.660Z,86.51
2018-09-27T07:40:35.772Z,85.94
2018-09-27T07:41:45.855Z,86.13
2018-09-27T07:42:56.128Z,86.41
2018-09-27T07:44:06.188Z,86.22
2018-09-27T07:45:16.072Z,86.51
2018-09-27T07:46:26.144Z,86.51
2018-09-27T07:47:35.694Z,86.65
2018-09-27T07:48:45.773Z,86.55
2018-09-27T07:49:55.324Z,86.17
2018-09-27T07:51:05.154Z,86.17
2018-09-27T07:52:15.235Z,86.17
2018-09-27T07:53:25.296Z,86.27
2018-09-27T07:54:35.284Z,86.17
2018-09-27T07:55:45.600Z,85.98
2018-09-27T07:56:55.432Z,86.17
2018-09-27T07:58:06.594Z,86.17
2018-09-27T07:59:16.389Z,86.21
2018-09-27T08:00:26.525Z,86.21
2018-09-27T08:01:36.602Z,86.02
2018-09-27T08:02:46.474Z,86.6
2018-09-27T08:03:56.911Z,86.41
2018-09-27T08:05:07.155Z,86.16
2018-09-27T08:06:17.213Z,86.35
2018-09-27T08:07:27.313Z,85.97
2018-09-27T08:08:37.178Z,86.25
2018-09-27T08:09:47.561Z,85.97
2018-09-27T08:10:57.689Z,86.35
2018-09-27T08:12:08.274Z,86.3
2018-09-27T08:13:18.360Z,86.3
2018-09-27T08:14:28.459Z,86.21
2018-09-27T08:15:38.424Z,86.3
2018-09-27T08:16:48.692Z,86.21
2018-09-27T08:17:58.503Z,86.3
2018-09-27T08:19:09.064Z,86.3
2018-09-27T08:20:19.192Z,86.34
2018-09-27T08:21:28.969Z,86.05
2018-09-27T08:22:39.049Z,86.34
2018-09-27T08:23:49.126Z,86.15
2018-09-27T08:24:59.271Z,86.34
2018-09-27T08:26:09.374Z,86.15
2018-09-27T08:27:19.190Z,86.15
2018-09-27T08:28:29.279Z,86.38
2018-09-27T08:29:39.371Z,86.48
2018-09-27T08:30:49.467Z,86.19
2018-09-27T08:32:00.317Z,86.19
2018-09-27T08:33:10.125Z,86.29
2018-09-27T08:34:19.944Z,85.95
2018-09-27T08:35:30.074Z,85.47
2018-09-27T08:36:39.894Z,85.75
2018-09-27T08:37:49.725Z,85.37
2018-09-27T08:38:59.832Z,85.61
2018-09-27T08:40:09.902Z,85.71
2018-09-27T08:41:19.970Z,85.55
2018-09-27T08:42:30.031Z,85.17
2018-09-27T08:43:40.104Z,85.07
2018-09-27T08:44:50.685Z,85.6
2018-09-27T08:46:01.908Z,85.5
2018-09-27T08:47:12.052Z,85.5
2018-09-27T08:48:21.600Z,85.78
2018-09-27T08:49:31.427Z,85.88
2018-09-27T08:50:41.230Z,86.08
2018-09-27T08:51:50.792Z,86.56
2018-09-27T08:53:00.432Z,86.8
2018-09-27T08:54:10.256Z,87.67
2018-09-27T08:55:19.600Z,87.29
2018-09-27T08:56:29.710Z,87.09
2018-09-27T08:57:40.195Z,86.75
2018-09-27T08:58:50.613Z,87.04
2018-09-27T09:00:03.292Z,86.85
2018-09-27T09:01:12.861Z,86.46
2018-09-27T09:02:22.906Z,86.65
2018-09-27T09:03:33.011Z,86.69
2018-09-27T09:04:43.656Z,86.22
2018-09-27T09:05:53.736Z,86.12
2018-09-27T09:07:03.838Z,85.93
2018-09-27T09:08:13.908Z,86.16
2018-09-27T09:09:23.994Z,85.78
2018-09-27T09:10:33.406Z,85.78
2018-09-27T09:11:43.483Z,86.16
2018-09-27T09:12:53.570Z,86.55
2018-09-27T09:14:05.441Z,86.55
2018-09-27T09:15:15.268Z,86.69
2018-09-27T09:16:25.435Z,86.78
2018-09-27T09:17:35.507Z,86.49
2018-09-27T09:18:45.578Z,86.11
2018-09-27T09:19:55.393Z,86.11
2018-09-27T09:21:05.241Z,86.3
2018-09-27T09:22:14.787Z,86.15
2018-09-27T09:23:24.881Z,86.25
2018-09-27T09:24:35.112Z,86.25
2018-09-27T09:25:45.800Z,86.15
2018-09-27T09:26:56.155Z,86.1
2018-09-27T09:28:06.245Z,86
2018-09-27T09:29:16.111Z,85.61
2018-09-27T09:30:26.481Z,85.56
2018-09-27T09:31:36.038Z,85.37
2018-09-27T09:32:46.124Z,85.37
2018-09-27T09:33:55.988Z,85.94
2018-09-27T09:35:06.080Z,86.33
2018-09-27T09:36:15.890Z,86.24
2018-09-27T09:37:25.725Z,86.96
2018-09-27T09:38:35.786Z,86.72
2018-09-27T09:39:45.868Z,87.3
2018-09-27T09:40:55.688Z,87.45
2018-09-27T09:42:05.778Z,87.45
2018-09-27T09:43:15.855Z,87.26
2018-09-27T09:44:25.939Z,87.3
2018-09-27T09:45:35.788Z,86.82
2018-09-27T09:46:45.592Z,87.1
2018-09-27T09:47:55.390Z,86.82
2018-09-27T09:49:06.783Z,86.76
2018-09-27T09:50:16.850Z,86.82
2018-09-27T09:51:26.680Z,86.86
2018-09-27T09:52:36.757Z,86.76
2018-09-27T09:53:46.836Z,86.96
2018-09-27T09:54:56.653Z,86.66
2018-09-27T09:56:06.455Z,86.66
2018-09-27T09:57:16.537Z,86.86
2018-09-27T09:58:26.334Z,86.66
2018-09-27T09:59:36.405Z,86.76
2018-09-27T10:00:46.209Z,86.57
2018-09-27T10:01:56.279Z,86.66
2018-09-27T10:03:06.399Z,86.8
2018-09-27T10:04:16.209Z,87.09
2018-09-27T10:05:26.283Z,86.71
2018-09-27T10:06:36.361Z,87.09
2018-09-27T10:07:46.162Z,86.8
2018-09-27T10:08:56.406Z,86.71
2018-09-27T10:10:06.923Z,86.85
2018-09-27T10:11:17.004Z,86.85
2018-09-27T10:12:26.806Z,87.13
2018-09-27T10:13:36.942Z,86.75
2018-09-27T10:14:47.059Z,86.75
2018-09-27T10:15:57.136Z,87.13
2018-09-27T10:17:07.202Z,86.94
2018-09-27T10:18:17.289Z,87.04
2018-09-27T10:19:27.088Z,86.65
2018-09-27T10:20:37.195Z,86.99
2018-09-27T10:21:47.566Z,87.08
2018-09-27T10:22:58.024Z,87.08
2018-09-27T10:24:07.833Z,87.08
2018-09-27T10:25:17.640Z,87.13
2018-09-27T10:26:27.473Z,87.27
2018-09-27T10:27:37.730Z,87.27
2018-09-27T10:28:47.844Z,87.08
2018-09-27T10:29:57.930Z,87.08
2018-09-27T10:31:08.003Z,86.99
2018-09-27T10:32:17.824Z,86.89
2018-09-27T10:33:27.901Z,86.83
2018-09-27T10:34:37.606Z,86.74
2018-09-27T10:35:48.119Z,87.13
2018-09-27T10:36:58.216Z,87.03
2018-09-27T10:38:08.751Z,87.13
2018-09-27T10:39:18.558Z,87.23
2018-09-27T10:40:28.631Z,87.13
2018-09-27T10:41:38.683Z,86.83
2018-09-27T10:42:48.237Z,86.98
2018-09-27T10:43:58.099Z,86.88
2018-09-27T10:45:08.189Z,86.98
2018-09-27T10:46:18.294Z,86.98
2018-09-27T10:47:28.371Z,87.07
2018-09-27T10:48:38.469Z,87.17
2018-09-27T10:49:48.599Z,87.07
2018-09-27T10:50:58.668Z,86.88
2018-09-27T10:52:09.658Z,87.17
2018-09-27T10:53:19.498Z,87.17
2018-09-27T10:54:29.592Z,86.78
2018-09-27T10:55:39.738Z,86.88
2018-09-27T10:56:49.805Z,86.78
2018-09-27T10:57:59.663Z,87.31
2018-09-27T10:59:09.850Z,87.31
2018-09-27T11:00:19.922Z,87.02
2018-09-27T11:01:30.038Z,87.21
2018-09-27T11:02:40.129Z,87.12
2018-09-27T11:03:50.200Z,87.26
2018-09-27T11:05:00.440Z,86.96
2018-09-27T11:06:10.541Z,87.16
2018-09-27T11:07:20.671Z,87.54
2018-09-27T11:08:30.744Z,87.35
2018-09-27T11:09:40.662Z,87.64
2018-09-27T11:10:50.822Z,87.74
2018-09-27T11:12:00.889Z,87.54
2018-09-27T11:13:10.997Z,86.96
2018-09-27T11:14:20.807Z,87.26
2018-09-27T11:15:30.899Z,87.45
2018-09-27T11:16:41.239Z,87.16
2018-09-27T11:17:51.336Z,86.96
2018-09-27T11:19:01.204Z,87.35
2018-09-27T11:20:11.024Z,86.96
2018-09-27T11:21:21.107Z,86.96
2018-09-27T11:22:31.194Z,86.96
2018-09-27T11:23:41.286Z,87.49
2018-09-27T11:24:51.209Z,87.06
2018-09-27T11:26:01.035Z,87.3
2018-09-27T11:27:11.111Z,87.1
2018-09-27T11:28:20.920Z,87.2
2018-09-27T11:29:31.005Z,86.82
2018-09-27T11:30:41.166Z,86.76
2018-09-27T11:31:51.272Z,86.66
2018-09-27T11:33:01.552Z,86.95
2018-09-27T11:34:11.674Z,86.86
2018-09-27T11:35:21.485Z,86.66
2018-09-27T11:36:31.095Z,86.57
2018-09-27T11:37:40.938Z,86.86
2018-09-27T11:38:50.771Z,86.86
2018-09-27T11:40:02.795Z,87.09
2018-09-27T11:41:12.896Z,87.24
2018-09-27T11:42:23.140Z,87.38
2018-09-27T11:43:33.641Z,86.8
2018-09-27T11:44:43.735Z,87.29
2018-09-27T11:45:53.816Z,87.29
2018-09-27T11:47:04.374Z,86.8
2018-09-27T11:48:14.458Z,87.19
2018-09-27T11:49:24.769Z,86.9
2018-09-27T11:50:35.536Z,86.71
2018-09-27T11:51:45.627Z,86.8
2018-09-27T11:52:55.717Z,87.19
2018-09-27T11:54:05.872Z,86.99
2018-09-27T11:55:15.893Z,87.04
2018-09-27T11:56:25.977Z,87.33
2018-09-27T11:57:36.065Z,86.85
2018-09-27T11:58:46.179Z,87.04
2018-09-27T11:59:56.408Z,86.94
2018-09-27T12:01:06.492Z,86.94
2018-09-27T12:02:16.576Z,86.75
2018-09-27T12:03:26.656Z,86.75
2018-09-27T12:04:36.758Z,86.75
2018-09-27T12:05:46.632Z,86.75
2018-09-27T12:06:56.807Z,86.65
2018-09-27T12:08:06.646Z,86.55
2018-09-27T12:09:16.462Z,87.04
2018-09-27T12:10:26.335Z,87.52
2018-09-27T12:11:36.477Z,87.43
2018-09-27T12:12:46.291Z,86.85
2018-09-27T12:13:56.111Z,87.08
2018-09-27T12:15:05.676Z,86.79
2018-09-27T12:16:15.511Z,86.89
2018-09-27T12:17:25.219Z,86.79
2018-09-27T12:18:35.188Z,86.6
2018-09-27T12:19:45.454Z,87.08
2018-09-27T12:20:55.195Z,87.18
2018-09-27T12:22:05.294Z,87.08
2018-09-27T12:23:15.454Z,87.18
2018-09-27T12:24:25.285Z,87.37
2018-09-27T12:25:35.190Z,86.89
2018-09-27T12:26:45.284Z,87.18
2018-09-27T12:27:55.382Z,87.08
2018-09-27T12:29:06.681Z,87.37
2018-09-27T12:30:16.761Z,87.27
2018-09-27T12:31:26.871Z,87.18
2018-09-27T12:32:36.969Z,87.08
2018-09-27T12:33:47.081Z,87.32
2018-09-27T12:34:57.248Z,87.27
2018-09-27T12:36:07.330Z,86.99
2018-09-27T12:37:17.426Z,87.18
2018-09-27T12:38:27.644Z,87.27
2018-09-27T12:39:37.698Z,87.37
2018-09-27T12:40:48.308Z,87.18
2018-09-27T12:41:58.752Z,87.57
2018-09-27T12:43:10.078Z,87.47
2018-09-27T12:44:19.911Z,87.47
2018-09-27T12:45:29.930Z,86.93
2018-09-27T12:46:40.379Z,86.79
2018-09-27T12:47:50.497Z,86.89
2018-09-27T12:49:00.697Z,87.51
2018-09-27T12:50:10.948Z,87.57
2018-09-27T12:51:21.655Z,87.57
2018-09-27T12:52:32.635Z,87.27
2018-09-27T12:53:43.162Z,87.27
2018-09-27T12:54:53.276Z,87.41
2018-09-27T12:56:03.529Z,87.41
2018-09-27T12:57:14.357Z,87.51
2018-09-27T12:58:24.497Z,87.51
2018-09-27T12:59:34.450Z,87.32
2018-09-27T13:00:44.528Z,87.12
2018-09-27T13:01:54.419Z,87.27
2018-09-27T13:03:05.305Z,87.22
2018-09-27T13:04:15.413Z,87.27
2018-09-27T13:05:25.214Z,87.22
2018-09-27T13:06:35.314Z,87.51
2018-09-27T13:07:45.420Z,87.22
2018-09-27T13:08:55.302Z,87.41
2018-09-27T13:10:06.164Z,87.22
2018-09-27T13:11:16.277Z,86.83
2018-09-27T13:12:26.262Z,87.27
2018-09-27T13:13:37.310Z,87.41
2018-09-27T13:14:47.680Z,87.37
2018-09-27T13:15:58.153Z,87.37
2018-09-27T13:17:08.870Z,87.08
2018-09-27T13:18:19.468Z,87.27
2018-09-27T13:19:29.821Z,87.47
2018-09-27T13:20:40.575Z,87.57
2018-09-27T13:21:50.881Z,87.76
2018-09-27T13:23:00.843Z,87.57
2018-09-27T13:24:11.329Z,87.57
2018-09-27T13:25:21.414Z,87.57
2018-09-27T13:26:31.866Z,87.66
2018-09-27T13:27:41.828Z,87.76
2018-09-27T13:28:51.916Z,87.57
2018-09-27T13:30:01.797Z,87.81
2018-09-27T13:31:12.122Z,87.61
2018-09-27T13:32:22.234Z,87.51
2018-09-27T13:33:32.323Z,87.71
2018-09-27T13:34:42.420Z,87.41
2018-09-27T13:35:52.522Z,87.22
2018-09-27T13:37:02.794Z,87.41
2018-09-27T13:38:13.423Z,87.12
2018-09-27T13:39:23.534Z,87.51
2018-09-27T13:40:33.386Z,87.12
2018-09-27T13:41:43.233Z,87.51
2018-09-27T13:42:52.852Z,87.22
2018-09-27T13:44:04.213Z,87.51
2018-09-27T13:45:14.202Z,87.22
2018-09-27T13:46:24.308Z,87.51
2018-09-27T13:47:34.730Z,87.51
2018-09-27T13:48:44.564Z,87.22
2018-09-27T13:49:54.685Z,87.71
2018-09-27T13:51:04.959Z,87.37
2018-09-27T13:52:15.253Z,87.12
2018-09-27T13:53:25.066Z,87.41
2018-09-27T13:54:34.900Z,87.71
2018-09-27T13:55:45.049Z,87.61
2018-09-27T13:56:55.406Z,87.12
2018-09-27T13:58:06.000Z,87.32
2018-09-27T13:59:15.841Z,87.81
2018-09-27T14:00:25.667Z,87.51
2018-09-27T14:01:35.491Z,87.61
2018-09-27T14:02:45.069Z,87.61
2018-09-27T14:03:54.937Z,87.9
2018-09-27T14:05:04.770Z,87.41
2018-09-27T14:06:14.866Z,87.96
2018-09-27T14:07:25.004Z,87.81
2018-09-27T14:08:34.825Z,88
2018-09-27T14:09:44.935Z,88.1
2018-09-27T14:10:55.010Z,88.1
2018-09-27T14:12:05.395Z,88.1
2018-09-27T14:13:15.517Z,87.76
2018-09-27T14:14:25.368Z,88.1
2018-09-27T14:15:35.587Z,87.96
2018-09-27T14:16:45.765Z,88.05
2018-09-27T14:17:55.188Z,88.15
2018-09-27T14:19:05.919Z,87.57
2018-09-27T14:20:16.048Z,87.86
2018-09-27T14:21:25.608Z,87.66
2018-09-27T14:22:35.427Z,88.34
2018-09-27T14:23:45.270Z,88.24
2018-09-27T14:24:55.595Z,88.34
2018-09-27T14:26:05.766Z,88.54
2018-09-27T14:27:15.604Z,88.3
2018-09-27T14:28:25.709Z,87.91
2018-09-27T14:29:35.784Z,88.2
2018-09-27T14:30:45.912Z,88.1
2018-09-27T14:31:56.345Z,88.1
2018-09-27T14:33:06.490Z,88.1
2018-09-27T14:34:16.316Z,88.3
2018-09-27T14:35:26.185Z,88.2
2018-09-27T14:36:36.522Z,88.2
2018-09-27T14:37:46.933Z,88.1
2018-09-27T14:38:56.754Z,88.1
2018-09-27T14:40:06.829Z,88.1
2018-09-27T14:41:16.660Z,88.3
2018-09-27T14:42:26.831Z,87.91
2018-09-27T14:43:37.091Z,87.91
2018-09-27T14:44:47.175Z,87.91
2018-09-27T14:45:57.032Z,88.2
2018-09-27T14:47:07.156Z,88.1
2018-09-27T14:48:17.235Z,88.1
2018-09-27T14:49:27.325Z,88.1
2018-09-27T14:50:37.165Z,88.1
2018-09-27T14:51:46.734Z,88.4
2018-09-27T14:52:56.828Z,88.3
2018-09-27T14:54:06.974Z,88.49
2018-09-27T14:55:17.084Z,88.2
2018-09-27T14:56:26.912Z,88.3
2018-09-27T14:57:37.032Z,88.1
2018-09-27T14:58:47.259Z,88.1
2018-09-27T14:59:57.359Z,88.01
2018-09-27T15:01:07.561Z,88.35
2018-09-27T15:02:18.006Z,88.45
2018-09-27T15:03:28.164Z,88.26
2018-09-27T15:04:38.407Z,88.06
2018-09-27T15:05:48.602Z,88.02
2018-09-27T15:06:58.731Z,88.41
2018-09-27T15:08:08.887Z,88.79
2018-09-27T15:09:19.195Z,88.51
2018-09-27T15:10:30.183Z,88.51
2018-09-27T15:11:40.767Z,88.31
2018-09-27T15:12:50.631Z,88.41
2018-09-27T15:14:00.732Z,88.6
2018-09-27T15:15:10.829Z,88.41
2018-09-27T15:16:21.036Z,88.51
2018-09-27T15:17:31.284Z,89.18
2018-09-27T15:18:41.387Z,88.99
2018-09-27T15:19:51.482Z,89.04
2018-09-27T15:21:01.563Z,88.75
2018-09-27T15:22:11.377Z,88.56
2018-09-27T15:23:21.643Z,88.46
2018-09-27T15:24:31.860Z,88.65
2018-09-27T15:25:41.979Z,89
2018-09-27T15:26:52.085Z,88.95
2018-09-27T15:28:02.181Z,89.04
2018-09-27T15:29:12.041Z,88.9
2018-09-27T15:30:22.135Z,88.81
2018-09-27T15:31:32.299Z,88.81
2018-09-27T15:32:42.402Z,89
2018-09-27T15:33:52.505Z,88.9
2018-09-27T15:35:03.960Z,89.09
2018-09-27T15:36:14.076Z,88.95
2018-09-27T15:37:24.338Z,88.85
2018-09-27T15:38:34.208Z,88.57
2018-09-27T15:39:44.299Z,88.57
2018-09-27T15:40:54.246Z,89.15
2018-09-27T15:42:04.768Z,89.05